Flight Track Log - Related Links

Times and Time Zones

All times are in EDT time to prevent confusion due to time zone crossing. See the EGF4393 flight status page for this flight to view local times or setup timezone preferences in your user account.

Time Position Orientation Groundspeed Altitude Reporting Facility
EDT Latitude Longitude Course Direction KTS MPH feet Rate Location/Type
Sun 03:46:34 PM 41.9667 -87.8000 324° Northwest 207 238 3,400  Level Chicago TRACON
Sun 03:47:00 PM 42.1441 -87.9568 350° North  Level FlightAware Approximate
Sun 03:48:00 PM 42.2328 -87.9874 350° North  Level FlightAware Approximate
Sun 03:48:58 PM 42.0569 -87.7186 34° Northeast 261 300 8,500  Level Chicago Center
Sun 03:49:00 PM 42.3231 -88.0099 350° North  Level FlightAware Approximate
Sun 03:50:00 PM 42.4105 -88.0469 340° North  Level FlightAware Approximate
Sun 03:50:00 PM 42.1261 -87.7664 333° Northwest 281 323 10,400  Level Chicago Center
Sun 03:51:00 PM 42.5008 -88.0675 324° Northwest  Level FlightAware Approximate
Sun 03:51:02 PM 42.2094 -87.7706 358° North 302 348 11,600  Level Chicago Center
Sun 03:52:04 PM 42.3033 -87.7872 353° North 334 384 12,700 1,452 Climbing Chicago Center
Sun 03:53:06 PM 42.3942 -87.8572 330° Northwest 356 410 14,600 1,887 Climbing Chicago Center
Sun 03:54:08 PM 42.4786 -87.9178 332° Northwest 344 396 16,600 1,984 Climbing Chicago Center
Sun 03:55:10 PM 42.5753 -87.9886 332° Northwest 339 390 18,700 1,728 Climbing Chicago Center
Sun 03:56:13 PM 42.6589 -88.0508 331° Northwest 342 394 20,200 1,344 Climbing Chicago Center
Sun 03:57:15 PM 42.7464 -88.1147 332° Northwest 353 406 21,500 871 Climbing Chicago Center
Sun 03:58:17 PM 42.8392 -88.1828 332° Northwest 374 430 22,000 242 Climbing Chicago Center
Sun 03:59:19 PM 42.9383 -88.2556 332° Northwest 402 463 22,000  Level Chicago Center
Sun 04:00:21 PM 43.0400 -88.3325 331° Northwest 416 479 22,000  Level Chicago Center
Sun 04:01:23 PM 43.1603 -88.4200 332° Northwest 418 481 22,000  Level Chicago Center
Sun 04:02:25 PM 43.2633 -88.4981 331° Northwest 419 482 22,000  Level Chicago Center
Sun 04:03:27 PM 43.3689 -88.5778 331° Northwest 423 487 22,000  Level Chicago Center
Sun 04:04:29 PM 43.4767 -88.6589 331° Northwest 427 491 22,000  Level Chicago Center
Sun 04:05:31 PM 43.5797 -88.7364 331° Northwest 419 482 22,000  Level Chicago Center
Sun 04:06:11 PM 43.6481 -88.7894 331° Northwest 419 482 22,000 -59 Level Minneapolis Center
Sun 04:07:13 PM 43.7494 -88.8656 332° Northwest 417 480 21,900 -429 Descending Minneapolis Center
Sun 04:07:35 PM 43.7831 -88.8917 331° Northwest 414 476 21,400 -1,770 Descending Chicago Center
Sun 04:08:14 PM 43.8494 -88.9433 331° Northwest 412 474 20,100 -2,020 Descending Minneapolis Center
Sun 04:09:16 PM 43.9483 -89.0189 331° Northwest 407 468 18,000 -1,984 Descending Minneapolis Center
Sun 04:10:18 PM 44.0547 -89.1008 331° Northwest 395 455 16,000 -1,756 Descending Minneapolis Center
Sun 04:11:19 PM 44.1489 -89.1747 331° Northwest 375 432 14,400 -1,756 Descending Minneapolis Center
Sun 04:12:21 PM 44.2425 -89.2464 331° Northwest 366 421 12,400 -1,694 Descending Minneapolis Center
Sun 04:13:23 PM 44.3283 -89.3153 330° Northwest 341 392 10,900 -1,355 Descending Minneapolis Center
Sun 04:14:25 PM 44.4003 -89.3697 332° Northwest 285 328 9,600 -1,512 Descending Minneapolis Center
Sun 04:15:26 PM 44.4636 -89.4197 331° Northwest 274 315 7,800 -1,756 Descending Minneapolis Center
Sun 04:16:28 PM 44.5308 -89.4736 330° Northwest 267 307 6,000 -1,694 Descending Minneapolis Center
Sun 04:17:30 PM 44.6047 -89.4906 351° North 261 300 4,300 -1,645 Descending Minneapolis Center

Login

Don't have an account? Register now (free) for customized features, flight alerts, and more!